Time;durP1;ratioP1;P1;durP2;ratioP2;P2;SDS_P1;SDS_P2;PMS_P1;PMS_P2;Temp;Humidity;BMP_temperature;BMP_pressure;BME280_temperature;BME280_humidity;BME280_pressure;Samples;Min_cycle;Max_cycle;Signal;HPM_P1;HPM_P2
2021/07/28 00:01:57;;;;;;;18.62;6.00;;;;;;;18.39;79.41;100871.02;1744882;81;21004;-82
2021/07/28 00:04:24;;;;;;;16.93;6.33;;;;;;;18.38;79.47;100889.25;1745212;81;21461;-82
2021/07/28 00:06:51;;;;;;;20.57;6.12;;;;;;;18.38;79.45;100889.25;1745224;81;21017;-83
2021/07/28 00:09:18;;;;;;;12.90;5.65;;;;;;;18.38;79.47;100882.13;1745132;81;21639;-82
2021/07/28 00:11:49;;;;;;;18.37;6.30;;;;;;;18.36;79.45;100886.59;1745336;82;21752;-83
2021/07/28 00:14:16;;;;;;;23.02;6.50;;;;;;;18.35;79.44;100886.13;1744792;81;21557;-83
2021/07/28 00:16:42;;;;;;;16.57;6.35;;;;;;;18.32;79.42;100882.17;1745201;81;21106;-83
2021/07/28 00:19:23;;;;;;;17.45;6.45;;;;;;;18.30;79.42;100881.30;1745014;81;21152;-82
2021/07/28 00:27:06;;;;;;;20.00;6.28;;;;;;;18.29;79.38;100866.64;1745177;81;21031;-83
2021/07/28 00:29:32;;;;;;;22.93;7.10;;;;;;;18.27;79.40;100865.31;1745128;81;21132;-83
2021/07/28 00:32:00;;;;;;;19.35;6.28;;;;;;;18.25;79.45;100858.65;1718270;82;21282;-83
2021/07/28 00:34:27;;;;;;;23.10;6.95;;;;;;;18.25;79.47;100861.77;1745454;82;20964;-83
2021/07/28 00:36:54;;;;;;;20.43;6.87;;;;;;;18.22;79.53;100862.65;1745407;81;22569;-83
2021/07/28 00:39:20;;;;;;;12.75;6.05;;;;;;;18.22;79.65;100851.99;1745240;81;21043;-83
2021/07/28 00:41:48;;;;;;;25.72;6.60;;;;;;;18.25;79.79;100857.31;1745266;82;21584;-83
2021/07/28 00:44:16;;;;;;;20.00;6.90;;;;;;;18.26;79.77;100855.11;1718014;82;21003;-83
2021/07/28 00:46:47;;;;;;;16.57;6.33;;;;;;;18.28;79.90;100851.53;1744534;81;21000;-83
2021/07/28 00:49:14;;;;;;;20.75;6.45;;;;;;;18.31;80.00;100851.53;1745247;82;21730;-83
2021/07/28 00:51:43;;;;;;;15.25;6.60;;;;;;;18.35;79.99;100847.95;1745076;81;21034;-83
2021/07/28 00:54:10;;;;;;;18.37;6.65;;;;;;;18.40;80.06;100843.03;1745360;81;21541;-83
2021/07/28 00:56:37;;;;;;;24.85;7.15;;;;;;;18.46;80.08;100848.31;1745532;82;21446;-83
2021/07/28 00:59:08;;;;;;;14.47;6.90;;;;;;;18.52;80.03;100839.84;1731494;82;21545;-83
2021/07/28 01:01:38;;;;;;;17.17;6.67;;;;;;;18.56;80.00;100838.93;1719641;82;22526;-83
2021/07/28 01:04:05;;;;;;;20.52;7.30;;;;;;;18.59;79.99;100832.26;1745020;82;21167;-83
2021/07/28 01:06:32;;;;;;;18.57;7.10;;;;;;;18.62;79.86;100834.46;1745187;81;21532;-83
2021/07/28 01:09:01;;;;;;;17.25;6.97;;;;;;;18.63;79.73;100832.67;1717986;82;21039;-83
2021/07/28 01:11:28;;;;;;;15.80;7.05;;;;;;;18.60;79.68;100828.68;1745344;82;20984;-83
2021/07/28 01:13:55;;;;;;;14.25;6.58;;;;;;;18.59;79.71;100833.13;1744911;82;22410;-83
2021/07/28 01:16:24;;;;;;;14.00;7.37;;;;;;;18.58;79.77;100834.47;1745119;82;20986;-83
2021/07/28 01:18:51;;;;;;;14.38;7.05;;;;;;;18.55;79.79;100836.72;1744736;81;21101;-83
2021/07/28 01:21:20;;;;;;;20.12;8.03;;;;;;;18.54;79.76;100834.06;1745413;81;20996;-83
2021/07/28 01:23:48;;;;;;;15.43;7.05;;;;;;;18.53;79.89;100827.85;1745094;81;21008;-83
2021/07/28 01:26:16;;;;;;;12.45;6.92;;;;;;;18.51;79.92;100826.10;1731519;82;20996;-82
2021/07/28 01:28:43;;;;;;;13.40;7.78;;;;;;;18.51;79.99;100820.77;1744890;82;21086;-83
2021/07/28 01:31:16;;;;;;;11.88;7.50;;;;;;;18.52;80.07;100828.73;1744961;81;21051;-83
2021/07/28 01:33:44;;;;;;;14.78;7.05;;;;;;;18.52;79.99;100820.73;1744438;81;21178;-83
2021/07/28 01:36:19;;;;;;;14.95;7.50;;;;;;;18.50;80.03;100815.87;1718065;82;21079;-83
2021/07/28 01:38:46;;;;;;;14.10;7.83;;;;;;;18.48;80.08;100813.66;1743348;81;22497;-83
2021/07/28 01:41:18;;;;;;;19.48;7.45;;;;;;;18.50;80.12;100813.66;1717767;82;21540;-83
2021/07/28 01:43:49;;;;;;;13.70;7.75;;;;;;;18.45;80.05;100807.91;1744354;81;21117;-83
2021/07/28 01:46:14;;;;;;;14.07;7.87;;;;;;;18.43;80.03;100805.71;1743343;81;21108;-83
2021/07/28 01:48:41;;;;;;;11.25;7.20;;;;;;;18.38;80.01;100804.84;1744923;82;21528;-83
2021/07/28 01:51:08;;;;;;;20.32;7.95;;;;;;;18.34;80.02;100808.85;1745118;82;22444;-83
2021/07/28 01:53:35;;;;;;;14.38;7.70;;;;;;;18.32;80.21;100803.56;1745036;82;38839;-83
2021/07/28 01:56:03;;;;;;;16.77;7.45;;;;;;;18.29;80.15;100802.69;1731650;81;20999;-83
2021/07/28 01:58:30;;;;;;;18.12;8.20;;;;;;;18.24;80.18;100802.70;1745027;81;21019;-83
2021/07/28 02:00:56;;;;;;;15.40;8.18;;;;;;;18.20;80.27;100799.62;1745205;82;21003;-83
2021/07/28 02:03:25;;;;;;;20.52;8.25;;;;;;;18.16;80.31;100802.74;1744579;81;21071;-82
2021/07/28 02:05:52;;;;;;;16.82;9.08;;;;;;;18.15;80.43;100796.09;1745271;81;21116;-83
2021/07/28 02:08:18;;;;;;;16.45;8.75;;;;;;;18.13;80.50;100798.79;1745058;81;21556;-83
2021/07/28 02:10:47;;;;;;;19.30;8.38;;;;;;;18.12;80.55;100792.13;1744907;81;21106;-83
2021/07/28 02:13:15;;;;;;;18.12;7.83;;;;;;;18.09;80.55;100782.81;1731383;82;21024;-83
2021/07/28 02:15:43;;;;;;;16.82;7.87;;;;;;;18.08;80.65;100783.72;1745156;82;23247;-83
2021/07/28 02:18:10;;;;;;;16.40;8.08;;;;;;;18.06;80.65;100785.94;1732249;82;21505;-83
2021/07/28 02:20:36;;;;;;;17.10;7.78;;;;;;;18.02;80.62;100785.52;1745068;81;21481;-83
2021/07/28 02:23:04;;;;;;;18.25;9.23;;;;;;;17.98;80.68;100791.76;1744869;81;21552;-83
2021/07/28 02:25:31;;;;;;;19.42;8.13;;;;;;;17.96;80.80;100786.89;1745266;82;21008;-83
2021/07/28 02:28:02;;;;;;;13.80;7.72;;;;;;;17.93;80.78;100785.56;1744937;81;22476;-83
2021/07/28 02:30:28;;;;;;;15.98;8.15;;;;;;;17.90;80.82;100789.55;1731234;82;20968;-83
2021/07/28 02:32:55;;;;;;;19.15;8.65;;;;;;;17.90;81.02;100796.21;1745079;81;21003;-83
2021/07/28 02:35:29;;;;;;;21.02;8.18;;;;;;;17.88;81.02;100794.01;1745167;82;21608;-83
2021/07/28 02:37:51;;;;;;;14.28;7.67;;;;;;;17.86;81.10;100798.00;1742554;81;21541;-83
2021/07/28 02:40:19;;;;;;;15.20;7.62;;;;;;;17.84;81.03;100791.80;1745139;82;21746;-83
2021/07/28 02:42:53;;;;;;;14.57;8.03;;;;;;;17.83;80.98;100785.11;1744950;81;21406;-82
2021/07/28 02:45:19;;;;;;;10.75;7.62;;;;;;;17.80;80.92;100791.34;1745141;81;21019;-83
2021/07/28 02:47:50;;;;;;;14.78;8.30;;;;;;;17.78;81.03;100789.14;1731556;82;21078;-82
2021/07/28 02:50:20;;;;;;;13.03;8.55;;;;;;;17.75;81.12;100791.80;1744958;81;21063;-83
2021/07/28 02:52:48;;;;;;;11.18;7.60;;;;;;;17.77;81.31;100786.02;1731792;82;21098;-83
2021/07/28 02:55:15;;;;;;;14.45;8.20;;;;;;;17.79;81.42;100784.27;1745104;81;20980;-83
2021/07/28 02:57:44;;;;;;;14.58;8.93;;;;;;;17.81;81.29;100789.14;1717869;82;21022;-83
2021/07/28 03:00:16;;;;;;;15.35;8.53;;;;;;;17.82;81.40;100788.68;1745334;81;21042;-83
2021/07/28 03:02:43;;;;;;;18.80;8.33;;;;;;;17.87;81.52;100790.47;1745118;81;21537;-82
2021/07/28 03:05:14;;;;;;;17.30;8.05;;;;;;;17.92;81.46;100794.42;1745076;82;21830;-82
2021/07/28 03:07:41;;;;;;;17.40;8.23;;;;;;;17.96;81.49;100794.88;1744952;81;21525;-83
2021/07/28 03:10:12;;;;;;;16.40;8.15;;;;;;;18.00;81.38;100791.72;1745029;81;20992;-83
2021/07/28 03:12:38;;;;;;;17.25;8.38;;;;;;;18.06;81.41;100789.92;1731525;82;21013;-83
2021/07/28 03:15:06;;;;;;;16.32;8.40;;;;;;;18.12;81.36;100795.67;1744672;81;21105;-83
2021/07/28 03:17:34;;;;;;;16.55;8.35;;;;;;;18.16;81.24;100796.55;1744840;82;21763;-83
2021/07/28 03:20:06;;;;;;;18.62;7.90;;;;;;;18.24;81.26;100801.37;1717522;82;21051;-83
2021/07/28 03:22:31;;;;;;;14.45;7.95;;;;;;;18.31;81.24;100807.11;1744336;81;21086;-83
2021/07/28 03:24:59;;;;;;;19.12;7.75;;;;;;;18.42;81.17;100805.72;1730731;81;21541;-83
2021/07/28 03:27:27;;;;;;;9.78;6.53;;;;;;;18.52;81.17;100799.41;1744651;81;21011;-83
2021/07/28 03:29:57;;;;;;;20.60;8.28;;;;;;;18.63;81.02;100800.67;1744874;82;22562;-83
2021/07/28 03:32:30;;;;;;;25.00;7.85;;;;;;;18.76;81.02;100798.34;1744859;81;21117;-83
2021/07/28 03:34:57;;;;;;;16.23;8.13;;;;;;;18.92;80.88;100799.16;1731229;82;21008;-83
2021/07/28 03:37:27;;;;;;;21.65;9.85;;;;;;;19.10;80.65;100798.09;1745011;81;21074;-83
2021/07/28 03:40:00;;;;;;;15.15;7.30;;;;;;;19.26;80.45;100796.17;1744587;81;21054;-81
2021/07/28 03:42:21;;;;;;;21.77;7.97;;;;;;;19.46;80.24;100799.07;1744620;81;21207;-81
2021/07/28 03:44:48;;;;;;;18.75;8.28;;;;;;;19.67;80.01;100796.59;1745091;82;21210;-81
2021/07/28 03:47:15;;;;;;;19.25;6.87;;;;;;;19.99;80.24;100790.91;1745283;82;21019;-81
2021/07/28 03:49:42;;;;;;;12.15;6.70;;;;;;;20.33;79.83;100791.78;1744953;81;21031;-83
2021/07/28 03:52:08;;;;;;;15.85;7.22;;;;;;;20.60;79.13;100794.51;1745201;81;21470;-83
2021/07/28 03:54:38;;;;;;;13.62;6.92;;;;;;;20.78;78.77;100796.89;1744699;81;21801;-83
2021/07/28 03:57:06;;;;;;;14.78;7.25;;;;;;;20.92;78.46;100800.66;1744982;82;21067;-83
2021/07/28 03:59:32;;;;;;;13.13;7.25;;;;;;;21.46;78.95;100795.72;1745190;82;20976;-83
2021/07/28 04:01:59;;;;;;;15.88;6.83;;;;;;;22.06;78.52;100801.66;1745227;82;21225;-83
2021/07/28 04:04:26;;;;;;;11.08;6.33;;;;;;;23.05;78.57;100801.15;1744085;81;21087;-83
2021/07/28 04:06:52;;;;;;;12.20;6.72;;;;;;;23.46;75.99;100795.13;1740862;82;22476;-82
2021/07/28 04:09:19;;;;;;;14.07;5.72;;;;;;;23.38;74.49;100790.88;1750504;80;21474;-85
2021/07/28 04:12:00;;;;;;;10.55;5.90;;;;;;;23.26;74.02;100797.48;1746114;82;21541;-85
2021/07/28 04:14:25;;;;;;;11.38;5.97;;;;;;;24.18;75.95;100775.16;1748539;81;21154;-83
2021/07/28 04:16:52;;;;;;;10.08;6.47;;;;;;;24.97;72.92;100794.57;1742067;82;21074;-83
2021/07/28 04:19:19;;;;;;;16.32;6.40;;;;;;;25.35;72.12;100803.63;1742664;81;21793;-81
2021/07/28 04:21:46;;;;;;;8.73;5.45;;;;;;;25.86;71.78;100793.68;1744445;81;21074;-83
2021/07/28 04:24:16;;;;;;;16.15;5.78;;;;;;;26.45;70.47;100798.59;1742212;81;21035;-83
2021/07/28 04:26:43;;;;;;;11.35;5.75;;;;;;;26.47;68.77;100799.41;1678427;84;21023;-83
2021/07/28 04:29:25;;;;;;;10.55;5.62;;;;;;;26.36;68.45;100798.97;1701016;83;21016;-85
2021/07/28 04:31:51;;;;;;;17.02;5.97;;;;;;;26.28;66.89;100803.80;1680087;84;22635;-85
2021/07/28 04:34:20;;;;;;;10.53;5.30;;;;;;;25.62;66.31;100799.08;1651498;85;21597;-85
2021/07/28 04:36:52;;;;;;;10.32;5.75;;;;;;;25.08;66.13;100800.95;1630873;87;21217;-89
2021/07/28 04:39:19;;;;;;;13.72;5.53;;;;;;;24.55;66.23;100799.12;1669635;84;21595;-83
2021/07/28 04:41:50;;;;;;;11.12;5.17;;;;;;;24.16;66.50;100807.95;1677447;82;21038;-85
2021/07/28 04:44:20;;;;;;;11.93;5.80;;;;;;;23.84;67.02;100806.63;1687898;83;21780;-84
2021/07/28 04:46:53;;;;;;;14.47;6.03;;;;;;;23.70;67.22;100807.91;1687247;83;21665;-85
2021/07/28 04:49:26;;;;;;;11.25;6.40;;;;;;;23.63;67.61;100812.12;1664653;83;21121;-86
2021/07/28 04:52:00;;;;;;;10.72;5.72;;;;;;;23.55;67.58;100816.81;1687645;85;21097;-93
2021/07/28 04:54:27;;;;;;;12.07;5.70;;;;;;;23.42;67.65;100815.39;1683118;85;21122;-83
2021/07/28 04:56:53;;;;;;;13.38;5.55;;;;;;;23.63;68.80;100816.16;1688110;83;22102;-83
2021/07/28 04:59:23;;;;;;;16.20;5.28;;;;;;;25.71;71.43;100817.57;1687845;83;21010;-82
2021/07/28 05:01:54;;;;;;;15.85;5.05;;;;;;;28.27;69.22;100819.98;1687480;83;21074;-83
2021/07/28 05:04:21;;;;;;;18.10;5.87;;;;;;;30.38;66.64;100815.87;1688184;85;21011;-84
2021/07/28 05:06:50;;;;;;;20.10;6.10;;;;;;;31.17;61.98;100809.95;1686870;83;21105;-84
2021/07/28 05:09:19;;;;;;;17.12;5.28;;;;;;;30.30;59.41;100812.69;1701839;83;21726;-83
2021/07/28 05:11:46;;;;;;;12.53;5.70;;;;;;;29.22;58.91;100808.98;1714885;83;21011;-84
2021/07/28 05:14:15;;;;;;;12.15;5.35;;;;;;;28.30;59.29;100809.47;1712191;82;21044;-83
2021/07/28 05:16:43;;;;;;;14.95;5.72;;;;;;;27.84;59.99;100811.14;1717615;83;21715;-83
2021/07/28 05:19:10;;;;;;;12.03;5.20;;;;;;;28.59;60.77;100808.09;1719608;81;21492;-83
2021/07/28 05:21:37;;;;;;;14.45;5.70;;;;;;;29.45;60.21;100815.92;1721269;82;21760;-83
2021/07/28 05:24:05;;;;;;;12.78;5.40;;;;;;;29.22;58.71;100814.89;1715801;82;21066;-83
2021/07/28 05:26:31;;;;;;;12.20;5.28;;;;;;;29.10;58.88;100812.31;1714587;82;21036;-83
2021/07/28 05:28:58;;;;;;;13.83;5.37;;;;;;;29.78;59.40;100811.02;1710819;82;21042;-84
2021/07/28 05:31:27;;;;;;;19.67;5.90;;;;;;;31.03;59.39;100803.10;1714144;83;20983;-84
2021/07/28 05:33:56;;;;;;;10.40;5.28;;;;;;;32.89;58.00;100803.61;1712824;82;21987;-84
2021/07/28 05:36:22;;;;;;;14.73;6.00;;;;;;;34.06;55.17;100806.35;1713913;82;21079;-84
2021/07/28 05:38:56;;;;;;;16.35;5.35;;;;;;;34.79;54.73;100804.64;1716484;82;21082;-84
2021/07/28 05:41:18;;;;;;;11.68;5.80;;;;;;;36.20;53.43;100804.98;1712178;83;21019;-84
2021/07/28 05:43:44;;;;;;;9.80;5.62;;;;;;;37.57;51.60;100804.36;1718759;82;21030;-84
2021/07/28 05:46:11;;;;;;;16.67;5.67;;;;;;;37.47;48.15;100807.05;1716408;82;22071;-83
2021/07/28 05:48:40;;;;;;;15.63;6.15;;;;;;;36.08;47.04;100804.10;1715572;82;21008;-83
2021/07/28 05:51:08;;;;;;;13.95;5.35;;;;;;;34.60;46.44;100800.54;1719071;82;22220;-83
2021/07/28 05:53:36;;;;;;;12.00;5.37;;;;;;;33.30;46.78;100796.69;1720975;82;21015;-84
2021/07/28 05:56:04;;;;;;;11.03;5.50;;;;;;;32.25;47.58;100796.48;1719073;82;21039;-84
2021/07/28 05:58:31;;;;;;;9.45;5.47;;;;;;;31.59;48.21;100790.66;1714899;83;21804;-83
2021/07/28 06:00:58;;;;;;;8.40;5.67;;;;;;;31.01;48.27;100786.91;1713650;82;21093;-83
2021/07/28 06:03:25;;;;;;;13.10;6.35;;;;;;;30.45;48.66;100784.31;1717739;83;21489;-83
2021/07/28 06:05:56;;;;;;;8.75;5.85;;;;;;;30.01;49.29;100781.73;1722025;83;21085;-83
2021/07/28 06:08:22;;;;;;;9.58;5.83;;;;;;;29.62;49.65;100786.55;1713486;82;21048;-83
2021/07/28 06:10:49;;;;;;;8.88;5.85;;;;;;;29.38;50.35;100790.09;1713473;82;21829;-83
2021/07/28 06:13:17;;;;;;;9.65;6.62;;;;;;;29.14;50.59;100798.16;1718833;82;21023;-83
2021/07/28 06:15:46;;;;;;;10.85;6.35;;;;;;;28.83;50.85;100800.58;1712931;83;21585;-83
2021/07/28 06:18:12;;;;;;;11.20;6.53;;;;;;;28.57;51.33;100796.46;1717547;82;21094;-83
2021/07/28 06:20:39;;;;;;;9.80;6.03;;;;;;;28.29;51.69;100794.19;1713094;82;20960;-83
2021/07/28 06:23:06;;;;;;;12.18;6.80;;;;;;;28.12;52.26;100792.30;1714062;83;22518;-83
2021/07/28 06:25:33;;;;;;;10.45;6.22;;;;;;;27.96;52.26;100795.31;1720268;82;21016;-83
2021/07/28 06:27:59;;;;;;;13.90;6.90;;;;;;;27.73;52.73;100799.94;1720341;82;21007;-83
2021/07/28 06:30:26;;;;;;;11.57;7.97;;;;;;;27.72;53.39;100793.66;1717207;82;20960;-83
2021/07/28 06:32:53;;;;;;;10.90;7.10;;;;;;;27.72;53.61;100797.71;1715376;83;21024;-83
2021/07/28 06:35:19;;;;;;;14.90;8.13;;;;;;;27.60;53.95;100798.73;1715257;82;21796;-83
2021/07/28 06:37:46;;;;;;;16.57;7.83;;;;;;;27.58;54.27;100802.86;1715559;83;21162;-83
2021/07/28 06:40:14;;;;;;;11.57;7.85;;;;;;;27.57;54.48;100802.92;1715345;83;21086;-83
2021/07/28 06:42:41;;;;;;;13.95;7.60;;;;;;;27.47;54.46;100797.92;1715339;83;21066;-83
2021/07/28 06:45:08;;;;;;;12.70;8.05;;;;;;;27.41;54.96;100795.98;1715416;83;21588;-83
2021/07/28 06:47:35;;;;;;;12.80;8.50;;;;;;;27.30;55.08;100795.97;1715444;83;21799;-83
2021/07/28 06:50:03;;;;;;;15.08;9.08;;;;;;;27.17;55.24;100793.37;1715406;83;21022;-83
2021/07/28 06:52:30;;;;;;;11.35;8.90;;;;;;;27.02;55.49;100800.80;1715279;83;21137;-83
2021/07/28 06:54:56;;;;;;;12.43;8.90;;;;;;;26.84;55.67;100801.98;1715367;83;21030;-83
2021/07/28 06:57:23;;;;;;;14.80;8.40;;;;;;;26.60;55.99;100807.02;1715556;83;21023;-83
2021/07/28 06:59:52;;;;;;;14.53;9.85;;;;;;;26.47;56.65;100807.98;1715007;82;21815;-83
2021/07/28 07:02:18;;;;;;;13.38;8.63;;;;;;;26.50;57.03;100812.80;1715408;83;21066;-83
2021/07/28 07:04:45;;;;;;;13.68;9.58;;;;;;;26.55;57.08;100812.59;1715363;82;21140;-83
2021/07/28 07:07:12;;;;;;;14.23;9.63;;;;;;;26.61;57.25;100812.38;1715318;83;21532;-83
2021/07/28 07:09:38;;;;;;;15.13;9.58;;;;;;;26.67;57.28;100807.19;1715425;82;21481;-83
2021/07/28 07:12:06;;;;;;;12.90;9.00;;;;;;;26.70;57.43;100812.00;1715415;83;21742;-83
2021/07/28 07:14:35;;;;;;;11.50;10.05;;;;;;;26.72;57.55;100810.59;1715215;83;20992;-83
2021/07/28 07:17:03;;;;;;;11.73;9.95;;;;;;;26.73;57.71;100809.66;1715318;83;21058;-83
2021/07/28 07:19:30;;;;;;;12.60;9.38;;;;;;;26.73;57.52;100803.78;1715454;83;21007;-83
2021/07/28 07:21:57;;;;;;;12.85;11.30;;;;;;;26.70;57.74;100805.72;1715431;83;20995;-83
2021/07/28 07:24:26;;;;;;;13.10;10.50;;;;;;;26.65;57.62;100809.08;1715298;83;21760;-83
2021/07/28 07:26:53;;;;;;;12.18;9.30;;;;;;;26.59;58.07;100814.22;1715021;83;21023;-83
2021/07/28 07:29:20;;;;;;;16.05;9.95;;;;;;;26.57;58.23;100812.92;1715250;83;21489;-82
2021/07/28 07:31:50;;;;;;;12.18;10.25;;;;;;;26.56;58.28;100810.32;1715466;83;21135;-83
2021/07/28 07:34:15;;;;;;;12.80;10.10;;;;;;;26.54;58.55;100811.73;1715226;83;21031;-82
2021/07/28 07:36:42;;;;;;;12.43;10.32;;;;;;;26.52;58.64;100807.31;1715380;83;21213;-83
2021/07/28 07:39:08;;;;;;;12.47;10.00;;;;;;;26.48;58.82;100809.25;1715373;83;21047;-83
2021/07/28 07:41:35;;;;;;;15.03;10.00;;;;;;;26.50;58.98;100806.05;1715471;82;21011;-82
2021/07/28 07:44:02;;;;;;;11.63;10.53;;;;;;;26.51;59.15;100803.73;1715340;83;21118;-82
2021/07/28 07:46:29;;;;;;;11.00;9.85;;;;;;;26.52;59.26;100803.26;1715068;83;21023;-82
2021/07/28 07:48:56;;;;;;;14.60;10.72;;;;;;;26.49;58.88;100796.66;1715266;83;21737;-82
2021/07/28 07:51:26;;;;;;;11.78;10.68;;;;;;;26.47;58.83;100789.09;1715344;83;21015;-82
2021/07/28 07:53:52;;;;;;;11.50;9.98;;;;;;;26.46;59.05;100794.07;1715321;83;21066;-83
2021/07/28 07:56:19;;;;;;;11.35;9.85;;;;;;;26.48;59.22;100793.53;1715484;83;21581;-82
2021/07/28 07:58:46;;;;;;;12.28;11.00;;;;;;;26.49;59.20;100798.01;1715511;83;21520;-82
2021/07/28 08:01:13;;;;;;;13.10;10.13;;;;;;;26.46;59.12;100799.47;1715595;83;21744;-82
2021/07/28 08:03:40;;;;;;;14.73;11.08;;;;;;;26.46;59.32;100796.77;1715191;83;20980;-82
2021/07/28 08:06:08;;;;;;;8.98;8.08;;;;;;;26.47;59.45;100795.36;1715309;83;21051;-82
2021/07/28 08:08:35;;;;;;;14.05;9.50;;;;;;;26.51;58.99;100795.64;1715304;82;21253;-82
2021/07/28 08:11:15;;;;;;;11.65;8.10;;;;;;;26.55;58.89;100799.09;1715286;83;21701;-82
2021/07/28 08:13:42;;;;;;;11.15;8.93;;;;;;;26.58;58.74;100792.23;1715204;83;21807;-82
2021/07/28 08:16:22;;;;;;;10.30;7.97;;;;;;;26.66;58.67;100787.42;1715110;83;22179;-82
2021/07/28 08:18:49;;;;;;;12.78;11.48;;;;;;;26.76;58.37;100779.33;1715511;83;20983;-82
2021/07/28 08:21:17;;;;;;;11.78;8.00;;;;;;;26.87;58.21;100780.23;1715457;83;21035;-82
2021/07/28 08:23:45;;;;;;;11.38;8.45;;;;;;;27.06;58.14;100776.27;1715565;83;21039;-82
2021/07/28 08:26:13;;;;;;;8.73;7.83;;;;;;;27.15;57.88;100781.75;1715284;83;21723;-82
2021/07/28 08:28:44;;;;;;;9.28;7.10;;;;;;;27.25;57.89;100775.02;1715324;83;21386;-82
2021/07/28 08:31:10;;;;;;;12.58;10.20;;;;;;;27.38;57.67;100771.30;1715114;83;21082;-81
2021/07/28 08:33:36;;;;;;;10.32;8.40;;;;;;;27.52;57.05;100776.97;1715358;83;21008;-81
2021/07/28 08:36:04;;;;;;;9.63;7.20;;;;;;;27.53;56.69;100783.25;1715464;83;21528;-82
2021/07/28 08:38:31;;;;;;;7.05;6.22;;;;;;;27.48;56.78;100778.52;1715514;83;21713;-82
2021/07/28 08:41:03;;;;;;;6.20;5.20;;;;;;;27.62;56.61;100781.48;1715146;83;21552;-82
2021/07/28 08:43:35;;;;;;;7.53;6.10;;;;;;;27.72;55.61;100772.02;1715419;83;20976;-82
2021/07/28 08:46:07;;;;;;;10.70;5.40;;;;;;;27.72;54.93;100764.36;1713405;83;21043;-82
2021/07/28 08:48:35;;;;;;;8.33;5.10;;;;;;;27.77;54.79;100769.56;1715703;82;21094;-82
2021/07/28 08:51:03;;;;;;;6.78;6.17;;;;;;;27.77;54.33;100769.09;1715369;82;21768;-82
2021/07/28 08:53:30;;;;;;;6.58;4.08;;;;;;;27.73;53.24;100768.34;1715263;83;21038;-82
2021/07/28 08:56:00;;;;;;;3.52;3.17;;;;;;;27.76;53.20;100770.50;1703038;83;20999;-82
2021/07/28 08:58:27;;;;;;;4.83;3.67;;;;;;;27.88;52.75;100768.59;1715476;83;21072;-82
2021/07/28 09:00:54;;;;;;;4.97;3.40;;;;;;;28.06;52.48;100770.47;1715411;83;21047;-82
2021/07/28 09:03:21;;;;;;;6.17;3.65;;;;;;;28.27;52.01;100774.45;1715284;83;21822;-82
2021/07/28 09:05:52;;;;;;;6.25;2.80;;;;;;;28.45;51.15;100759.98;1715463;83;21000;-82
2021/07/28 09:08:29;;;;;;;5.30;3.10;;;;;;;28.57;50.34;100758.55;1715603;83;21003;-82
2021/07/28 09:11:04;;;;;;;3.72;2.92;;;;;;;28.65;50.04;100754.09;1718808;83;21004;-82
2021/07/28 09:13:40;;;;;;;4.08;3.58;;;;;;;28.65;49.43;100751.39;1705586;83;20956;-82
2021/07/28 09:16:10;;;;;;;3.50;3.20;;;;;;;28.64;49.24;100757.74;1714965;82;21826;-81
2021/07/28 09:18:39;;;;;;;5.55;4.28;;;;;;;28.66;48.73;100758.55;1715103;83;21485;-82
2021/07/28 09:21:26;;;;;;;3.75;3.30;;;;;;;28.69;48.53;100759.75;1715143;83;21060;-81
2021/07/28 09:24:11;;;;;;;3.55;3.25;;;;;;;28.69;48.22;100752.98;1715041;83;21489;-82
2021/07/28 09:26:49;;;;;;;6.83;3.83;;;;;;;28.70;48.46;100753.40;1715194;83;21027;-82
2021/07/28 09:29:27;;;;;;;4.17;3.50;;;;;;;28.76;48.34;100754.43;1715120;82;21784;-83
2021/07/28 09:32:06;;;;;;;6.10;3.70;;;;;;;28.86;48.10;100750.77;1715043;83;21341;-82
2021/07/28 09:34:37;;;;;;;7.97;3.83;;;;;;;28.95;47.94;100752.14;1715108;83;21110;-83
2021/07/28 09:37:13;;;;;;;4.65;4.25;;;;;;;29.00;47.77;100745.97;1715128;82;21087;-83
2021/07/28 09:39:50;;;;;;;12.80;4.55;;;;;;;29.07;47.53;100747.41;1715262;83;20989;-83
2021/07/28 09:42:28;;;;;;;7.58;4.97;;;;;;;29.18;47.44;100746.89;1715071;82;21724;-82
2021/07/28 09:44:56;;;;;;;7.15;4.28;;;;;;;29.22;47.18;100751.19;1715180;83;21074;-83
2021/07/28 09:47:24;;;;;;;17.57;6.00;;;;;;;29.32;46.69;100747.50;1714912;83;21019;-83
2021/07/28 09:50:00;;;;;;;3.95;3.65;;;;;;;29.35;46.44;100760.41;1715050;83;21214;-82
2021/07/28 09:52:34;;;;;;;6.22;4.40;;;;;;;29.32;46.20;100756.98;1716726;82;21042;-83
2021/07/28 09:55:29;;;;;;;12.47;5.05;;;;;;;29.29;46.19;100762.11;1713533;83;22585;-83
2021/07/28 09:57:59;;;;;;;12.10;6.30;;;;;;;29.20;46.27;100765.30;1711378;83;21015;-82
2021/07/28 10:00:31;;;;;;;6.22;4.87;;;;;;;29.07;45.85;100760.97;1714904;82;21529;-82
2021/07/28 10:03:01;;;;;;;7.22;4.00;;;;;;;29.00;45.90;100765.84;1715485;83;21004;-82
2021/07/28 10:05:28;;;;;;;9.15;5.72;;;;;;;29.03;45.93;100768.86;1715494;82;21055;-82
2021/07/28 10:07:59;;;;;;;9.00;6.53;;;;;;;29.08;45.77;100766.80;1705289;83;21851;-82
2021/07/28 10:10:25;;;;;;;8.93;5.08;;;;;;;29.07;45.58;100755.55;1716157;82;21075;-82
2021/07/28 10:12:52;;;;;;;8.53;7.22;;;;;;;28.98;45.46;100743.83;1715445;82;21055;-82
2021/07/28 10:15:20;;;;;;;8.13;4.90;;;;;;;28.88;45.51;100732.59;1715311;83;21022;-82
2021/07/28 10:17:46;;;;;;;4.47;3.87;;;;;;;28.82;45.33;100735.14;1715436;83;21005;-82
2021/07/28 10:20:13;;;;;;;4.35;4.05;;;;;;;28.82;45.09;100731.08;1715389;83;21749;-82
2021/07/28 10:22:42;;;;;;;4.30;3.90;;;;;;;28.78;45.09;100743.03;1715439;83;21077;-83
2021/07/28 10:25:15;;;;;;;6.90;3.92;;;;;;;28.77;45.05;100739.91;1715496;83;21172;-82
2021/07/28 10:27:51;;;;;;;3.98;3.52;;;;;;;28.82;45.29;100738.34;1714801;83;21559;-82
2021/07/28 10:30:22;;;;;;;5.72;5.17;;;;;;;28.87;45.12;100737.14;1715388;83;21011;-83
2021/07/28 10:32:50;;;;;;;5.17;3.87;;;;;;;28.89;44.43;100732.52;1715081;83;21299;-81
2021/07/28 10:35:27;;;;;;;9.05;3.65;;;;;;;28.86;44.25;100720.97;1715352;83;21536;-83
2021/07/28 10:37:57;;;;;;;7.05;4.20;;;;;;;28.85;43.89;100720.55;1715432;83;21513;-82
2021/07/28 10:40:31;;;;;;;10.90;3.87;;;;;;;28.83;43.85;100719.75;1714977;83;21015;-82
2021/07/28 10:43:01;;;;;;;7.42;6.67;;;;;;;28.83;43.59;100714.34;1715483;83;20983;-82
2021/07/28 10:45:48;;;;;;;7.75;4.37;;;;;;;28.86;43.33;100715.06;1724365;83;21864;-82
2021/07/28 10:48:49;;;;;;;6.92;3.67;;;;;;;28.91;43.36;100722.09;1707680;83;21038;-83
2021/07/28 10:54:19;;;;;;;5.75;5.25;;;;;;;28.94;42.90;100719.20;1720875;82;21504;-82
2021/07/28 10:57:07;;;;;;;6.08;4.20;;;;;;;28.97;42.74;100717.70;1719265;83;21003;-82
2021/07/28 10:59:42;;;;;;;11.18;3.92;;;;;;;29.03;42.80;100707.89;1717911;83;21829;-82
2021/07/28 11:02:09;;;;;;;4.70;4.25;;;;;;;29.08;42.73;100704.46;1722085;82;21521;-82
2021/07/28 11:04:36;;;;;;;6.90;6.22;;;;;;;29.11;42.32;100700.22;1720771;83;21032;-82
2021/07/28 11:07:03;;;;;;;4.40;3.83;;;;;;;29.13;42.21;100706.49;1717288;83;21039;-83
2021/07/28 11:09:29;;;;;;;6.67;4.25;;;;;;;29.14;42.07;100699.23;1719563;83;21047;-83
2021/07/28 11:11:56;;;;;;;4.08;3.77;;;;;;;29.15;42.00;100700.97;1716490;82;21753;-82
2021/07/28 11:14:23;;;;;;;4.33;3.92;;;;;;;29.21;41.95;100699.30;1717142;83;21059;-82
2021/07/28 11:16:51;;;;;;;8.80;4.28;;;;;;;29.24;42.02;100701.37;1720541;82;21000;-83
2021/07/28 11:19:19;;;;;;;7.40;3.77;;;;;;;29.28;41.97;100702.05;1714342;82;21012;-83
2021/07/28 11:21:47;;;;;;;7.97;4.15;;;;;;;29.36;42.01;100694.40;1715254;82;21065;-83
2021/07/28 11:24:13;;;;;;;9.40;4.87;;;;;;;29.57;41.96;100689.62;1711865;82;21774;-83
2021/07/28 11:26:47;;;;;;;5.20;4.70;;;;;;;29.86;41.72;100689.85;1714047;82;21039;-84
2021/07/28 11:29:19;;;;;;;6.17;3.77;;;;;;;30.20;41.46;100687.45;1717936;83;21163;-84
2021/07/28 11:31:48;;;;;;;4.22;3.50;;;;;;;30.53;41.03;100685.58;1718941;83;20997;-84
2021/07/28 11:34:22;;;;;;;4.55;3.83;;;;;;;30.81;40.56;100681.58;1720145;82;21497;-83
2021/07/28 11:37:02;;;;;;;14.45;8.78;;;;;;;30.98;40.18;100678.36;1715021;82;21425;-82